JST203 YBCS-YBSU
Flight info
| Callsign | JST203 |
|---|---|
| Flight time | N/A |
| Altitude | 37000 |
| Route | AKROM Y177 RUROX/N0342F190 W727 SUSGI W534 SEBVA |
| Aircraft | A20N/M-SDE2E3FGHIRWXY/LB1 |
Departure
| Time | 2026-04-27 08:21 |
|---|---|
| Airport | Cairns International Airport (YBCS) |
Arrival
| Time | N/A |
|---|---|
| Airport | Sunshine Coast Airport (YBSU) |
| Time | Latitude | Longitude | Altitude | Speed | Heading |
|---|---|---|---|---|---|
| 2026-04-27 07:48 | -16.87289 | 145.75341 | 16 ft | 0 kts | 157° |
| 2026-04-27 08:08 | -16.87274 | 145.75334 | 19 ft | 4 kts | 157° |
| 2026-04-27 08:08 | -16.87249 | 145.75323 | 17 ft | 4 kts | 157° |
| 2026-04-27 08:08 | -16.87220 | 145.75311 | 19 ft | 4 kts | 171° |
| 2026-04-27 08:08 | -16.87196 | 145.75321 | 20 ft | 4 kts | 239° |
| 2026-04-27 08:09 | -16.87193 | 145.75328 | 21 ft | 0 kts | 242° |
| 2026-04-27 08:11 | -16.87200 | 145.75312 | 18 ft | 5 kts | 244° |
| 2026-04-27 08:12 | -16.87226 | 145.75257 | 18 ft | 11 kts | 244° |
| 2026-04-27 08:12 | -16.87258 | 145.75174 | 16 ft | 14 kts | 248° |
| 2026-04-27 08:12 | -16.87300 | 145.75073 | 16 ft | 17 kts | 246° |
| 2026-04-27 08:12 | -16.87315 | 145.74946 | 12 ft | 20 kts | 287° |
| 2026-04-27 08:13 | -16.87216 | 145.74840 | 11 ft | 22 kts | 338° |
| 2026-04-27 08:13 | -16.87119 | 145.74796 | 11 ft | 12 kts | 336° |
| 2026-04-27 08:13 | -16.87092 | 145.74784 | 11 ft | 0 kts | 335° |
| 2026-04-27 08:14 | -16.87088 | 145.74782 | 11 ft | 2 kts | 335° |
| 2026-04-27 08:14 | -16.87066 | 145.74767 | 11 ft | 0 kts | 320° |
| 2026-04-27 08:15 | -16.87058 | 145.74758 | 10 ft | 4 kts | 309° |
| 2026-04-27 08:16 | -16.87051 | 145.74740 | 10 ft | 0 kts | 283° |
| 2026-04-27 08:16 | -16.87049 | 145.74731 | 9 ft | 0 kts | 279° |
| 2026-04-27 08:17 | -16.87049 | 145.74721 | 9 ft | 4 kts | 271° |
| 2026-04-27 08:17 | -16.87055 | 145.74694 | 8 ft | 0 kts | 250° |
| 2026-04-27 08:18 | -16.87057 | 145.74691 | 8 ft | 2 kts | 250° |
| 2026-04-27 08:18 | -16.87074 | 145.74639 | 7 ft | 14 kts | 255° |
| 2026-04-27 08:19 | -16.87005 | 145.74548 | 8 ft | 22 kts | 335° |
| 2026-04-27 08:19 | -16.86840 | 145.74474 | 9 ft | 30 kts | 336° |
| 2026-04-27 08:19 | -16.86664 | 145.74389 | 13 ft | 25 kts | 320° |
| 2026-04-27 08:19 | -16.86584 | 145.74377 | 14 ft | 10 kts | 76° |
| 2026-04-27 08:20 | -16.86608 | 145.74391 | 14 ft | 5 kts | 174° |
| 2026-04-27 08:20 | -16.86689 | 145.74406 | 12 ft | 27 kts | 161° |
| 2026-04-27 08:20 | -16.87024 | 145.74552 | 11 ft | 84 kts | 156° |
| 2026-04-27 08:20 | -16.87740 | 145.74877 | 14 ft | 138 kts | 156° |
| 2026-04-27 08:21 | -16.88749 | 145.75339 | 119 ft | 171 kts | 156° |
| 2026-04-27 08:21 | -16.89833 | 145.75863 | 633 ft | 178 kts | 146° |
| 2026-04-27 08:21 | -16.90512 | 145.76974 | 1022 ft | 192 kts | 95° |
| 2026-04-27 08:21 | -16.90150 | 145.78287 | 1589 ft | 195 kts | 51° |
| 2026-04-27 08:22 | -16.89178 | 145.79282 | 2214 ft | 197 kts | 38° |
| 2026-04-27 08:22 | -16.88109 | 145.80148 | 2828 ft | 198 kts | 36° |
| 2026-04-27 08:22 | -16.86989 | 145.81012 | 3501 ft | 200 kts | 35° |
| 2026-04-27 08:22 | -16.85867 | 145.81890 | 4229 ft | 202 kts | 41° |
| 2026-04-27 08:23 | -16.85036 | 145.83064 | 4942 ft | 204 kts | 68° |
| 2026-04-27 08:23 | -16.84611 | 145.84535 | 5405 ft | 223 kts | 78° |
| 2026-04-27 08:23 | -16.84373 | 145.86220 | 5758 ft | 247 kts | 84° |
| 2026-04-27 08:23 | -16.84247 | 145.88089 | 6205 ft | 268 kts | 87° |
| 2026-04-27 08:24 | -16.84328 | 145.90056 | 6869 ft | 276 kts | 105° |
| 2026-04-27 08:24 | -16.85209 | 145.91841 | 7708 ft | 279 kts | 132° |
| 2026-04-27 08:24 | -16.86728 | 145.93071 | 8511 ft | 282 kts | 150° |
| 2026-04-27 08:24 | -16.88488 | 145.94061 | 9338 ft | 286 kts | 153° |
| 2026-04-27 08:25 | -16.90276 | 145.95011 | 10134 ft | 290 kts | 153° |
| 2026-04-27 08:25 | -16.92087 | 145.95992 | 10598 ft | 308 kts | 152° |
| 2026-04-27 08:25 | -16.94054 | 145.97094 | 10852 ft | 331 kts | 152° |
| 2026-04-27 08:25 | -16.96107 | 145.98273 | 11344 ft | 341 kts | 151° |
| 2026-04-27 08:26 | -16.98188 | 145.99482 | 12112 ft | 344 kts | 151° |
| 2026-04-27 08:26 | -17.00294 | 146.00708 | 12838 ft | 348 kts | 151° |
| 2026-04-27 08:26 | -17.02418 | 146.01947 | 13544 ft | 352 kts | 151° |
| 2026-04-27 08:26 | -17.04570 | 146.03202 | 14235 ft | 356 kts | 151° |
| 2026-04-27 08:27 | -17.06732 | 146.04461 | 14904 ft | 359 kts | 151° |
| 2026-04-27 08:27 | -17.08919 | 146.05736 | 15553 ft | 363 kts | 151° |
| 2026-04-27 08:27 | -17.11154 | 146.07039 | 16203 ft | 366 kts | 151° |
| 2026-04-27 08:27 | -17.13391 | 146.08343 | 16824 ft | 370 kts | 151° |
| 2026-04-27 08:28 | -17.15621 | 146.09644 | 17423 ft | 373 kts | 151° |
| 2026-04-27 08:28 | -17.17904 | 146.10975 | 18009 ft | 376 kts | 151° |
| 2026-04-27 08:28 | -17.20207 | 146.12319 | 18586 ft | 380 kts | 151° |
| 2026-04-27 08:28 | -17.22531 | 146.13676 | 19152 ft | 383 kts | 151° |
| 2026-04-27 08:29 | -17.24872 | 146.15042 | 19704 ft | 386 kts | 151° |
| 2026-04-27 08:29 | -17.27220 | 146.16414 | 20245 ft | 389 kts | 151° |
| 2026-04-27 08:29 | -17.29603 | 146.17806 | 20769 ft | 393 kts | 151° |
| 2026-04-27 08:29 | -17.31965 | 146.19186 | 21278 ft | 396 kts | 151° |
| 2026-04-27 08:30 | -17.34378 | 146.20597 | 21781 ft | 399 kts | 151° |
| 2026-04-27 08:30 | -17.36806 | 146.22016 | 22272 ft | 402 kts | 151° |
| 2026-04-27 08:30 | -17.39262 | 146.23453 | 22747 ft | 405 kts | 151° |
| 2026-04-27 08:30 | -17.41730 | 146.24897 | 23220 ft | 408 kts | 151° |
| 2026-04-27 08:31 | -17.44217 | 146.26352 | 23682 ft | 411 kts | 151° |
| 2026-04-27 08:31 | -17.46725 | 146.27820 | 24131 ft | 413 kts | 151° |
| 2026-04-27 08:31 | -17.49239 | 146.29292 | 24561 ft | 416 kts | 151° |
| 2026-04-27 08:31 | -17.51780 | 146.30780 | 24981 ft | 419 kts | 151° |
| 2026-04-27 08:32 | -17.54329 | 146.32274 | 25400 ft | 422 kts | 151° |
| 2026-04-27 08:32 | -17.56907 | 146.33785 | 25801 ft | 424 kts | 151° |
| 2026-04-27 08:32 | -17.59487 | 146.35298 | 26191 ft | 427 kts | 151° |
| 2026-04-27 08:32 | -17.62062 | 146.36808 | 26555 ft | 429 kts | 151° |
| 2026-04-27 08:33 | -17.64675 | 146.38341 | 26918 ft | 432 kts | 151° |
| 2026-04-27 08:33 | -17.67304 | 146.39884 | 27269 ft | 434 kts | 151° |
| 2026-04-27 08:33 | -17.69944 | 146.41434 | 27610 ft | 436 kts | 151° |
| 2026-04-27 08:33 | -17.72602 | 146.42995 | 27940 ft | 438 kts | 151° |
| 2026-04-27 08:34 | -17.75264 | 146.44559 | 28249 ft | 441 kts | 151° |
| 2026-04-27 08:34 | -17.77950 | 146.46137 | 28554 ft | 443 kts | 151° |
| 2026-04-27 08:34 | -17.80643 | 146.47720 | 28847 ft | 445 kts | 151° |
| 2026-04-27 08:34 | -17.83351 | 146.49313 | 29131 ft | 447 kts | 151° |
| 2026-04-27 08:35 | -17.86069 | 146.50912 | 29405 ft | 449 kts | 151° |
| 2026-04-27 08:35 | -17.88796 | 146.52517 | 29673 ft | 451 kts | 151° |
| 2026-04-27 08:35 | -17.91547 | 146.54137 | 29942 ft | 452 kts | 151° |
| 2026-04-27 08:35 | -17.94263 | 146.55736 | 30206 ft | 454 kts | 151° |
| 2026-04-27 08:36 | -17.97030 | 146.57366 | 30469 ft | 456 kts | 151° |
| 2026-04-27 08:36 | -17.99804 | 146.59001 | 30731 ft | 458 kts | 151° |
| 2026-04-27 08:36 | -18.02588 | 146.60642 | 30989 ft | 460 kts | 151° |
| 2026-04-27 08:36 | -18.05373 | 146.62285 | 31283 ft | 460 kts | 151° |
| 2026-04-27 08:37 | -18.08180 | 146.63941 | 31622 ft | 460 kts | 151° |
| 2026-04-27 08:37 | -18.10970 | 146.65588 | 31959 ft | 459 kts | 151° |
| 2026-04-27 08:37 | -18.13748 | 146.67228 | 32279 ft | 458 kts | 151° |
| 2026-04-27 08:37 | -18.16525 | 146.68868 | 32590 ft | 458 kts | 151° |
| 2026-04-27 08:38 | -18.19302 | 146.70509 | 32900 ft | 457 kts | 151° |
| 2026-04-27 08:38 | -18.22082 | 146.72152 | 33186 ft | 457 kts | 151° |
| 2026-04-27 08:38 | -18.24852 | 146.73790 | 33465 ft | 456 kts | 151° |
| 2026-04-27 08:38 | -18.27586 | 146.75407 | 33733 ft | 455 kts | 151° |
| 2026-04-27 08:39 | -18.30349 | 146.77043 | 33995 ft | 455 kts | 151° |
| 2026-04-27 08:39 | -18.33103 | 146.78673 | 34248 ft | 454 kts | 151° |
| 2026-04-27 08:39 | -18.35860 | 146.80305 | 34494 ft | 454 kts | 151° |
| 2026-04-27 08:39 | -18.38609 | 146.81923 | 34736 ft | 453 kts | 151° |
| 2026-04-27 08:40 | -18.41367 | 146.83539 | 34960 ft | 453 kts | 151° |
| 2026-04-27 08:40 | -18.44119 | 146.85149 | 35177 ft | 452 kts | 151° |
| 2026-04-27 08:40 | -18.45944 | 146.86218 | 35319 ft | 452 kts | 151° |
| 2026-04-27 08:40 | -18.49619 | 146.88371 | 35595 ft | 451 kts | 151° |
| 2026-04-27 08:41 | -18.51434 | 146.89436 | 35726 ft | 451 kts | 151° |
| 2026-04-27 08:41 | -18.54170 | 146.91043 | 35916 ft | 451 kts | 151° |
| 2026-04-27 08:41 | -18.56905 | 146.92650 | 36099 ft | 450 kts | 151° |
| 2026-04-27 08:41 | -18.59645 | 146.94260 | 36270 ft | 450 kts | 151° |
| 2026-04-27 08:42 | -18.62381 | 146.95868 | 36424 ft | 450 kts | 151° |
| 2026-04-27 08:42 | -18.65118 | 146.97478 | 36576 ft | 450 kts | 151° |
| 2026-04-27 08:42 | -18.67853 | 146.99087 | 36721 ft | 450 kts | 151° |
| 2026-04-27 08:42 | -18.70600 | 147.00703 | 36863 ft | 450 kts | 151° |
| 2026-04-27 08:43 | -18.73338 | 147.02315 | 36993 ft | 450 kts | 151° |
| 2026-04-27 08:43 | -18.76076 | 147.03928 | 37001 ft | 450 kts | 151° |
| 2026-04-27 08:43 | -18.81535 | 147.07145 | 37000 ft | 449 kts | 151° |
| 2026-04-27 08:44 | -18.86956 | 147.10342 | 37000 ft | 449 kts | 151° |
| 2026-04-27 08:44 | -18.92423 | 147.13568 | 37000 ft | 449 kts | 151° |
| 2026-04-27 08:45 | -18.97884 | 147.16794 | 37000 ft | 449 kts | 151° |
| 2026-04-27 08:45 | -19.03346 | 147.20022 | 37001 ft | 449 kts | 151° |
| 2026-04-27 08:46 | -19.08808 | 147.23253 | 37001 ft | 449 kts | 151° |
| 2026-04-27 08:46 | -19.14269 | 147.26486 | 37001 ft | 449 kts | 151° |
| 2026-04-27 08:47 | -19.19729 | 147.29721 | 37001 ft | 449 kts | 151° |
| 2026-04-27 08:47 | -19.25155 | 147.32937 | 37001 ft | 450 kts | 151° |
| 2026-04-27 08:48 | -19.30612 | 147.36175 | 37002 ft | 450 kts | 151° |
| 2026-04-27 08:48 | -19.36072 | 147.39418 | 37001 ft | 450 kts | 151° |
| 2026-04-27 08:49 | -19.41529 | 147.42660 | 37001 ft | 450 kts | 151° |
| 2026-04-27 08:49 | -19.46985 | 147.45905 | 37001 ft | 450 kts | 151° |
| 2026-04-27 08:50 | -19.52435 | 147.49149 | 37001 ft | 450 kts | 151° |
| 2026-04-27 08:50 | -19.57864 | 147.52382 | 37001 ft | 450 kts | 151° |
| 2026-04-27 08:51 | -19.63345 | 147.55650 | 37001 ft | 450 kts | 151° |
| 2026-04-27 08:51 | -19.68797 | 147.58901 | 37001 ft | 449 kts | 151° |
| 2026-04-27 08:52 | -19.74222 | 147.62141 | 37001 ft | 449 kts | 151° |
| 2026-04-27 08:52 | -19.79672 | 147.65395 | 37001 ft | 449 kts | 151° |
| 2026-04-27 08:53 | -19.85134 | 147.68658 | 37000 ft | 449 kts | 151° |
| 2026-04-27 08:53 | -19.90582 | 147.71914 | 37000 ft | 449 kts | 151° |
| 2026-04-27 08:54 | -19.96039 | 147.75179 | 37000 ft | 449 kts | 150° |
| 2026-04-27 08:54 | -20.01453 | 147.78421 | 36999 ft | 449 kts | 150° |
| 2026-04-27 08:55 | -20.06909 | 147.81692 | 36998 ft | 449 kts | 150° |
| 2026-04-27 08:55 | -20.12357 | 147.84960 | 36996 ft | 449 kts | 150° |
| 2026-04-27 08:56 | -20.17806 | 147.88231 | 36995 ft | 449 kts | 150° |
| 2026-04-27 08:56 | -20.23270 | 147.91514 | 36992 ft | 450 kts | 150° |
| 2026-04-27 08:57 | -20.31407 | 147.96408 | 36993 ft | 450 kts | 150° |
| 2026-04-27 08:58 | -20.36889 | 147.99708 | 36992 ft | 450 kts | 150° |
| 2026-04-27 08:58 | -20.42313 | 148.02977 | 36993 ft | 450 kts | 150° |
| 2026-04-27 08:59 | -20.47769 | 148.06267 | 36989 ft | 450 kts | 150° |
| 2026-04-27 08:59 | -20.53226 | 148.09560 | 36993 ft | 451 kts | 150° |
| 2026-04-27 09:00 | -20.58680 | 148.12855 | 36985 ft | 451 kts | 150° |
| 2026-04-27 09:00 | -20.64148 | 148.16161 | 36994 ft | 451 kts | 150° |
| 2026-04-27 09:01 | -20.69626 | 148.19474 | 36997 ft | 452 kts | 150° |
| 2026-04-27 09:01 | -20.75096 | 148.22787 | 37005 ft | 452 kts | 150° |
| 2026-04-27 09:02 | -20.80571 | 148.26105 | 37004 ft | 453 kts | 150° |
| 2026-04-27 09:02 | -20.86023 | 148.29412 | 37011 ft | 453 kts | 150° |
| 2026-04-27 09:03 | -20.91492 | 148.32732 | 37000 ft | 451 kts | 150° |
| 2026-04-27 09:03 | -20.96947 | 148.36047 | 37000 ft | 451 kts | 150° |
| 2026-04-27 09:04 | -21.02431 | 148.39382 | 37000 ft | 452 kts | 150° |
| 2026-04-27 09:04 | -21.07905 | 148.42714 | 36999 ft | 455 kts | 150° |
| 2026-04-27 09:05 | -21.13415 | 148.46070 | 36999 ft | 453 kts | 150° |
| 2026-04-27 09:05 | -21.18900 | 148.49414 | 37000 ft | 455 kts | 150° |
| 2026-04-27 09:06 | -21.24412 | 148.52778 | 37000 ft | 455 kts | 150° |
| 2026-04-27 09:06 | -21.29905 | 148.56132 | 37000 ft | 455 kts | 150° |
| 2026-04-27 09:07 | -21.35397 | 148.59489 | 37001 ft | 454 kts | 150° |
| 2026-04-27 09:07 | -21.40860 | 148.62832 | 37003 ft | 454 kts | 150° |
| 2026-04-27 09:08 | -21.46343 | 148.66189 | 37010 ft | 453 kts | 150° |
| 2026-04-27 09:08 | -21.51820 | 148.69546 | 37004 ft | 453 kts | 150° |
| 2026-04-27 09:09 | -21.57292 | 148.72902 | 36999 ft | 452 kts | 150° |
| 2026-04-27 09:09 | -21.62746 | 148.76251 | 37000 ft | 451 kts | 150° |
| 2026-04-27 09:10 | -21.68191 | 148.79597 | 37000 ft | 451 kts | 150° |
| 2026-04-27 09:10 | -21.73642 | 148.82950 | 36999 ft | 451 kts | 150° |
| 2026-04-27 09:11 | -21.79100 | 148.86309 | 37008 ft | 453 kts | 150° |
| 2026-04-27 09:11 | -21.84540 | 148.89661 | 36999 ft | 451 kts | 150° |
| 2026-04-27 09:12 | -21.89969 | 148.93009 | 37000 ft | 451 kts | 150° |
| 2026-04-27 09:12 | -21.95417 | 148.96371 | 37000 ft | 451 kts | 150° |
| 2026-04-27 09:13 | -22.00856 | 148.99731 | 37000 ft | 451 kts | 150° |
| 2026-04-27 09:13 | -22.06309 | 149.03103 | 37002 ft | 451 kts | 150° |
| 2026-04-27 09:14 | -22.11760 | 149.06476 | 37009 ft | 452 kts | 150° |
| 2026-04-27 09:14 | -22.17196 | 149.09843 | 37010 ft | 452 kts | 150° |
| 2026-04-27 09:15 | -22.22663 | 149.13233 | 37007 ft | 452 kts | 150° |
| 2026-04-27 09:15 | -22.28124 | 149.16622 | 37009 ft | 452 kts | 150° |
| 2026-04-27 09:16 | -22.33579 | 149.20010 | 37010 ft | 452 kts | 150° |
| 2026-04-27 09:16 | -22.39006 | 149.23383 | 37005 ft | 452 kts | 150° |
| 2026-04-27 09:17 | -22.44466 | 149.26781 | 37007 ft | 452 kts | 150° |
| 2026-04-27 09:17 | -22.49921 | 149.30178 | 37006 ft | 452 kts | 150° |
| 2026-04-27 09:18 | -22.55374 | 149.33578 | 36996 ft | 452 kts | 150° |
| 2026-04-27 09:18 | -22.60784 | 149.36953 | 36990 ft | 452 kts | 150° |
| 2026-04-27 09:19 | -22.66227 | 149.40353 | 36997 ft | 451 kts | 150° |
| 2026-04-27 09:19 | -22.71667 | 149.43753 | 36995 ft | 451 kts | 150° |
| 2026-04-27 09:20 | -22.77113 | 149.47161 | 36998 ft | 451 kts | 150° |
| 2026-04-27 09:20 | -22.82550 | 149.50566 | 37005 ft | 451 kts | 150° |
| 2026-04-27 09:21 | -22.87983 | 149.53972 | 37005 ft | 451 kts | 150° |
| 2026-04-27 09:21 | -22.93422 | 149.57384 | 37008 ft | 451 kts | 150° |
| 2026-04-27 09:22 | -22.98833 | 149.60781 | 37009 ft | 451 kts | 150° |
| 2026-04-27 09:22 | -23.04282 | 149.64204 | 37004 ft | 451 kts | 150° |
| 2026-04-27 09:23 | -23.09726 | 149.67641 | 36996 ft | 451 kts | 150° |
| 2026-04-27 09:23 | -23.15114 | 149.71049 | 36997 ft | 451 kts | 150° |
| 2026-04-27 09:24 | -23.20538 | 149.74481 | 37001 ft | 451 kts | 150° |
| 2026-04-27 09:24 | -23.25968 | 149.77918 | 37001 ft | 451 kts | 150° |
| 2026-04-27 09:25 | -23.31387 | 149.81352 | 37002 ft | 451 kts | 150° |
| 2026-04-27 09:25 | -23.35893 | 149.84211 | 37003 ft | 451 kts | 150° |
| 2026-04-27 09:26 | -23.41323 | 149.87658 | 37006 ft | 451 kts | 150° |
| 2026-04-27 09:26 | -23.46742 | 149.91101 | 37007 ft | 451 kts | 150° |
| 2026-04-27 09:27 | -23.53043 | 149.95109 | 37004 ft | 451 kts | 150° |
| 2026-04-27 09:27 | -23.57545 | 149.97976 | 37006 ft | 451 kts | 150° |
| 2026-04-27 09:28 | -23.62955 | 150.01423 | 37005 ft | 450 kts | 150° |
| 2026-04-27 09:28 | -23.68373 | 150.04879 | 37004 ft | 450 kts | 150° |
| 2026-04-27 09:29 | -23.73790 | 150.08339 | 37001 ft | 450 kts | 150° |
| 2026-04-27 09:29 | -23.79181 | 150.11784 | 36866 ft | 443 kts | 150° |
| 2026-04-27 09:29 | -23.81808 | 150.13464 | 36185 ft | 444 kts | 150° |
| 2026-04-27 09:30 | -23.84481 | 150.15175 | 35457 ft | 445 kts | 150° |
| 2026-04-27 09:30 | -23.87159 | 150.16889 | 34685 ft | 447 kts | 150° |
| 2026-04-27 09:30 | -23.89850 | 150.18613 | 33942 ft | 449 kts | 150° |
| 2026-04-27 09:30 | -23.92544 | 150.20339 | 33193 ft | 450 kts | 150° |
| 2026-04-27 09:31 | -23.95248 | 150.22073 | 32415 ft | 451 kts | 150° |
| 2026-04-27 09:31 | -23.97955 | 150.23809 | 31862 ft | 458 kts | 150° |
| 2026-04-27 09:31 | -24.00733 | 150.25592 | 31964 ft | 462 kts | 150° |
| 2026-04-27 09:31 | -24.03506 | 150.27373 | 32376 ft | 460 kts | 150° |
| 2026-04-27 09:32 | -24.06258 | 150.29141 | 32734 ft | 458 kts | 149° |
| 2026-04-27 09:32 | -24.09002 | 150.30905 | 33053 ft | 458 kts | 149° |
| 2026-04-27 09:32 | -24.11734 | 150.32661 | 33356 ft | 457 kts | 149° |
| 2026-04-27 09:32 | -24.14480 | 150.34428 | 33648 ft | 456 kts | 149° |
| 2026-04-27 09:33 | -24.17218 | 150.36191 | 33914 ft | 457 kts | 149° |
| 2026-04-27 09:33 | -24.22721 | 150.39735 | 34000 ft | 467 kts | 149° |
| 2026-04-27 09:34 | -24.28365 | 150.43375 | 33997 ft | 469 kts | 149° |
| 2026-04-27 09:34 | -24.31131 | 150.45160 | 33999 ft | 455 kts | 149° |
| 2026-04-27 09:34 | -24.33840 | 150.46910 | 34001 ft | 449 kts | 149° |
| 2026-04-27 09:35 | -24.39288 | 150.50430 | 33998 ft | 455 kts | 149° |
| 2026-04-27 09:35 | -24.44730 | 150.53950 | 33998 ft | 454 kts | 149° |
| 2026-04-27 09:36 | -24.50044 | 150.57717 | 34000 ft | 455 kts | 142° |
| 2026-04-27 09:36 | -24.54786 | 150.62320 | 34000 ft | 455 kts | 138° |
| 2026-04-27 09:37 | -24.59484 | 150.66968 | 33995 ft | 453 kts | 138° |
| 2026-04-27 09:37 | -24.61816 | 150.69276 | 33508 ft | 448 kts | 138° |
| 2026-04-27 09:37 | -24.64142 | 150.71582 | 32657 ft | 452 kts | 138° |
| 2026-04-27 09:37 | -24.66456 | 150.73879 | 31853 ft | 454 kts | 138° |
| 2026-04-27 09:38 | -24.68807 | 150.76215 | 31028 ft | 456 kts | 138° |
| 2026-04-27 09:38 | -24.71164 | 150.78558 | 30226 ft | 457 kts | 138° |
| 2026-04-27 09:38 | -24.73516 | 150.80899 | 29604 ft | 453 kts | 138° |
| 2026-04-27 09:38 | -24.75842 | 150.83213 | 29030 ft | 448 kts | 138° |
| 2026-04-27 09:39 | -24.78140 | 150.85502 | 28448 ft | 444 kts | 138° |
| 2026-04-27 09:39 | -24.80425 | 150.87779 | 27852 ft | 440 kts | 138° |
| 2026-04-27 09:39 | -24.82687 | 150.90034 | 27253 ft | 437 kts | 138° |
| 2026-04-27 09:39 | -24.84932 | 150.92273 | 26655 ft | 433 kts | 138° |
| 2026-04-27 09:40 | -24.87130 | 150.94466 | 26087 ft | 429 kts | 138° |
| 2026-04-27 09:40 | -24.89331 | 150.96664 | 25513 ft | 425 kts | 138° |
| 2026-04-27 09:40 | -24.91516 | 150.98847 | 24939 ft | 421 kts | 138° |
| 2026-04-27 09:40 | -24.93682 | 151.01012 | 24351 ft | 418 kts | 138° |
| 2026-04-27 09:41 | -24.95820 | 151.03149 | 23826 ft | 413 kts | 138° |
| 2026-04-27 09:41 | -24.97939 | 151.05269 | 23251 ft | 409 kts | 138° |
| 2026-04-27 09:41 | -25.00043 | 151.07376 | 22692 ft | 406 kts | 138° |
| 2026-04-27 09:41 | -25.02121 | 151.09456 | 22147 ft | 402 kts | 138° |
| 2026-04-27 09:42 | -25.04190 | 151.11530 | 21581 ft | 399 kts | 138° |
| 2026-04-27 09:42 | -25.06241 | 151.13585 | 21024 ft | 396 kts | 138° |
| 2026-04-27 09:42 | -25.08251 | 151.15600 | 20469 ft | 392 kts | 138° |
| 2026-04-27 09:42 | -25.10263 | 151.17619 | 19913 ft | 389 kts | 138° |
| 2026-04-27 09:43 | -25.12255 | 151.19619 | 19368 ft | 386 kts | 138° |
| 2026-04-27 09:43 | -25.14219 | 151.21591 | 19068 ft | 375 kts | 138° |
| 2026-04-27 09:43 | -25.16115 | 151.23497 | 19006 ft | 368 kts | 138° |
| 2026-04-27 09:43 | -25.18069 | 151.25460 | 19000 ft | 385 kts | 138° |
| 2026-04-27 09:44 | -25.20048 | 151.27450 | 18999 ft | 385 kts | 138° |
| 2026-04-27 09:44 | -25.22029 | 151.29442 | 18999 ft | 384 kts | 138° |
| 2026-04-27 09:44 | -25.24002 | 151.31428 | 18999 ft | 384 kts | 138° |
| 2026-04-27 09:44 | -25.25991 | 151.33431 | 19000 ft | 385 kts | 138° |
| 2026-04-27 09:45 | -25.27963 | 151.35418 | 19001 ft | 385 kts | 138° |
| 2026-04-27 09:45 | -25.29938 | 151.37408 | 19002 ft | 385 kts | 138° |
| 2026-04-27 09:45 | -25.31927 | 151.39413 | 19001 ft | 385 kts | 138° |
| 2026-04-27 09:45 | -25.33902 | 151.41405 | 19001 ft | 385 kts | 137° |
| 2026-04-27 09:46 | -25.35855 | 151.43376 | 19003 ft | 385 kts | 137° |
| 2026-04-27 09:46 | -25.37826 | 151.45367 | 19000 ft | 385 kts | 137° |
| 2026-04-27 09:46 | -25.39802 | 151.47362 | 18952 ft | 380 kts | 137° |
| 2026-04-27 09:46 | -25.41742 | 151.49324 | 18379 ft | 378 kts | 137° |
| 2026-04-27 09:47 | -25.43677 | 151.51280 | 17812 ft | 376 kts | 137° |
| 2026-04-27 09:47 | -25.45611 | 151.53237 | 17267 ft | 373 kts | 137° |
| 2026-04-27 09:47 | -25.47515 | 151.55163 | 16734 ft | 371 kts | 137° |
| 2026-04-27 09:47 | -25.49417 | 151.57089 | 16200 ft | 368 kts | 137° |
| 2026-04-27 09:48 | -25.51295 | 151.58992 | 15688 ft | 365 kts | 137° |
| 2026-04-27 09:48 | -25.53162 | 151.60883 | 15152 ft | 362 kts | 137° |
| 2026-04-27 09:48 | -25.55013 | 151.62760 | 14635 ft | 359 kts | 137° |
| 2026-04-27 09:48 | -25.56847 | 151.64621 | 14115 ft | 356 kts | 137° |
| 2026-04-27 09:49 | -25.58666 | 151.66467 | 13605 ft | 353 kts | 137° |
| 2026-04-27 09:49 | -25.60336 | 151.68454 | 13084 ft | 351 kts | 129° |
| 2026-04-27 09:49 | -25.61841 | 151.70579 | 12572 ft | 349 kts | 128° |
| 2026-04-27 09:49 | -25.63342 | 151.72676 | 12068 ft | 346 kts | 129° |
| 2026-04-27 09:50 | -25.64838 | 151.74758 | 11563 ft | 343 kts | 129° |
| 2026-04-27 09:50 | -25.66319 | 151.76819 | 11063 ft | 341 kts | 129° |
| 2026-04-27 09:50 | -25.67793 | 151.78871 | 10561 ft | 339 kts | 129° |
| 2026-04-27 09:50 | -25.69253 | 151.80907 | 10143 ft | 334 kts | 128° |
| 2026-04-27 09:51 | -25.70667 | 151.82880 | 10018 ft | 320 kts | 128° |
| 2026-04-27 09:51 | -25.72021 | 151.84772 | 9880 ft | 307 kts | 128° |
| 2026-04-27 09:51 | -25.73306 | 151.86569 | 9759 ft | 294 kts | 128° |
| 2026-04-27 09:51 | -25.74565 | 151.88329 | 9475 ft | 289 kts | 128° |
| 2026-04-27 09:52 | -25.75812 | 151.90072 | 9084 ft | 288 kts | 128° |
| 2026-04-27 09:52 | -25.77046 | 151.91799 | 8849 ft | 284 kts | 128° |
| 2026-04-27 09:52 | -25.78344 | 151.93615 | 8795 ft | 315 kts | 128° |
| 2026-04-27 09:52 | -25.79708 | 151.95523 | 8787 ft | 320 kts | 128° |
| 2026-04-27 09:53 | -25.81058 | 151.97414 | 8785 ft | 305 kts | 128° |
| 2026-04-27 09:53 | -25.82341 | 151.99212 | 8785 ft | 288 kts | 128° |
| 2026-04-27 09:53 | -25.83574 | 152.00941 | 8788 ft | 286 kts | 128° |
| 2026-04-27 09:53 | -25.84814 | 152.02680 | 8786 ft | 287 kts | 128° |
| 2026-04-27 09:54 | -25.86048 | 152.04411 | 8787 ft | 287 kts | 128° |
| 2026-04-27 09:54 | -25.87291 | 152.06155 | 8787 ft | 287 kts | 128° |
| 2026-04-27 09:54 | -25.88528 | 152.07890 | 8787 ft | 287 kts | 128° |
| 2026-04-27 09:54 | -25.89753 | 152.09610 | 8787 ft | 287 kts | 128° |
| 2026-04-27 09:55 | -25.90990 | 152.11349 | 8787 ft | 287 kts | 128° |
| 2026-04-27 09:55 | -25.92231 | 152.13094 | 8787 ft | 287 kts | 128° |
| 2026-04-27 09:55 | -25.94703 | 152.16569 | 8787 ft | 287 kts | 128° |
| 2026-04-27 09:56 | -25.95942 | 152.18311 | 8787 ft | 287 kts | 128° |
| 2026-04-27 09:56 | -25.97181 | 152.20056 | 8787 ft | 287 kts | 128° |
| 2026-04-27 09:56 | -25.98415 | 152.21792 | 8786 ft | 287 kts | 128° |
| 2026-04-27 09:56 | -25.99650 | 152.23532 | 8787 ft | 286 kts | 128° |
| 2026-04-27 09:57 | -26.00887 | 152.25275 | 8787 ft | 287 kts | 128° |
| 2026-04-27 09:57 | -26.02122 | 152.27017 | 8786 ft | 286 kts | 128° |
| 2026-04-27 09:57 | -26.03351 | 152.28750 | 8787 ft | 286 kts | 128° |
| 2026-04-27 09:57 | -26.04585 | 152.30490 | 8787 ft | 286 kts | 128° |
| 2026-04-27 09:58 | -26.05819 | 152.32231 | 8787 ft | 286 kts | 128° |
| 2026-04-27 09:58 | -26.07034 | 152.33947 | 8787 ft | 286 kts | 128° |
| 2026-04-27 09:58 | -26.08264 | 152.35684 | 8787 ft | 286 kts | 128° |
| 2026-04-27 09:58 | -26.09496 | 152.37425 | 8787 ft | 286 kts | 128° |
| 2026-04-27 09:59 | -26.10729 | 152.39167 | 8787 ft | 287 kts | 128° |
| 2026-04-27 09:59 | -26.11961 | 152.40909 | 8787 ft | 286 kts | 128° |
| 2026-04-27 09:59 | -26.13195 | 152.42655 | 8787 ft | 286 kts | 128° |
| 2026-04-27 09:59 | -26.14426 | 152.44395 | 8787 ft | 286 kts | 128° |
| 2026-04-27 10:00 | -26.15652 | 152.46131 | 8787 ft | 286 kts | 128° |
| 2026-04-27 10:00 | -26.16887 | 152.47880 | 8787 ft | 286 kts | 128° |
| 2026-04-27 10:00 | -26.18115 | 152.49619 | 8787 ft | 286 kts | 128° |
| 2026-04-27 10:00 | -26.19346 | 152.51364 | 8787 ft | 286 kts | 128° |
| 2026-04-27 10:01 | -26.20575 | 152.53107 | 8787 ft | 286 kts | 128° |
| 2026-04-27 10:01 | -26.21806 | 152.54852 | 8787 ft | 286 kts | 128° |
| 2026-04-27 10:01 | -26.23037 | 152.56599 | 8787 ft | 286 kts | 128° |
| 2026-04-27 10:01 | -26.24252 | 152.58323 | 8787 ft | 286 kts | 128° |
| 2026-04-27 10:02 | -26.25484 | 152.60072 | 8787 ft | 286 kts | 128° |
| 2026-04-27 10:02 | -26.26713 | 152.61817 | 8787 ft | 286 kts | 128° |
| 2026-04-27 10:02 | -26.27938 | 152.63558 | 8783 ft | 285 kts | 128° |
| 2026-04-27 10:02 | -26.29144 | 152.65298 | 8445 ft | 283 kts | 125° |
| 2026-04-27 10:03 | -26.30234 | 152.67123 | 8036 ft | 283 kts | 124° |
| 2026-04-27 10:03 | -26.31311 | 152.68913 | 7666 ft | 281 kts | 124° |
| 2026-04-27 10:03 | -26.32398 | 152.70713 | 7289 ft | 279 kts | 124° |
| 2026-04-27 10:03 | -26.33485 | 152.72511 | 6936 ft | 278 kts | 124° |
| 2026-04-27 10:04 | -26.34557 | 152.74288 | 6807 ft | 277 kts | 124° |
| 2026-04-27 10:04 | -26.35650 | 152.76100 | 6782 ft | 278 kts | 124° |
| 2026-04-27 10:04 | -26.36730 | 152.77892 | 6788 ft | 278 kts | 124° |
| 2026-04-27 10:04 | -26.37808 | 152.79685 | 6785 ft | 278 kts | 124° |
| 2026-04-27 10:05 | -26.38875 | 152.81458 | 6792 ft | 278 kts | 124° |
| 2026-04-27 10:05 | -26.39942 | 152.83233 | 6603 ft | 274 kts | 124° |
| 2026-04-27 10:05 | -26.41008 | 152.85006 | 6192 ft | 275 kts | 124° |
| 2026-04-27 10:05 | -26.42061 | 152.86759 | 6015 ft | 266 kts | 124° |
| 2026-04-27 10:06 | -26.43069 | 152.88439 | 5919 ft | 255 kts | 124° |
| 2026-04-27 10:06 | -26.44030 | 152.90046 | 5824 ft | 243 kts | 123° |
| 2026-04-27 10:06 | -26.44945 | 152.91590 | 5789 ft | 237 kts | 123° |
| 2026-04-27 10:06 | -26.45767 | 152.93205 | 5782 ft | 240 kts | 107° |
| 2026-04-27 10:07 | -26.45872 | 152.95026 | 5760 ft | 235 kts | 77° |
| 2026-04-27 10:07 | -26.45180 | 152.96656 | 5386 ft | 236 kts | 53° |
| 2026-04-27 10:07 | -26.44464 | 152.98261 | 5118 ft | 230 kts | 80° |
| 2026-04-27 10:07 | -26.44580 | 152.99991 | 4785 ft | 227 kts | 113° |
| 2026-04-27 10:08 | -26.45508 | 153.01327 | 4618 ft | 214 kts | 148° |
| 2026-04-27 10:08 | -26.46862 | 153.01819 | 4526 ft | 199 kts | 179° |
| 2026-04-27 10:08 | -26.48173 | 153.01753 | 4471 ft | 178 kts | 187° |
| 2026-04-27 10:08 | -26.49336 | 153.01583 | 4341 ft | 158 kts | 186° |
| 2026-04-27 10:09 | -26.50364 | 153.01593 | 4205 ft | 141 kts | 174° |
| 2026-04-27 10:09 | -26.50999 | 153.01732 | 4001 ft | 139 kts | 165° |
| 2026-04-27 10:09 | -26.51896 | 153.02125 | 3673 ft | 140 kts | 154° |
| 2026-04-27 10:09 | -26.52758 | 153.02692 | 3239 ft | 146 kts | 147° |
| 2026-04-27 10:10 | -26.53588 | 153.03355 | 2851 ft | 147 kts | 143° |
| 2026-04-27 10:10 | -26.54660 | 153.04277 | 2371 ft | 146 kts | 143° |
| 2026-04-27 10:10 | -26.55460 | 153.04970 | 2006 ft | 145 kts | 143° |
| 2026-04-27 10:10 | -26.56236 | 153.05641 | 1782 ft | 135 kts | 143° |
| 2026-04-27 10:11 | -26.56719 | 153.06060 | 1735 ft | 121 kts | 143° |
| 2026-04-27 10:11 | -26.57393 | 153.06652 | 1787 ft | 134 kts | 141° |
| 2026-04-27 10:11 | -26.58022 | 153.07250 | 2650 ft | 112 kts | 138° |
| 2026-04-27 10:11 | -26.58667 | 153.07949 | 2750 ft | 163 kts | 135° |
| 2026-04-27 10:12 | -26.59482 | 153.08898 | 3333 ft | 166 kts | 137° |
| 2026-04-27 10:12 | -26.60466 | 153.09687 | 3715 ft | 176 kts | 149° |
| 2026-04-27 10:12 | -26.61475 | 153.10373 | 4485 ft | 162 kts | 148° |
| 2026-04-27 10:12 | -26.62389 | 153.11012 | 5278 ft | 151 kts | 155° |
| 2026-04-27 10:13 | -26.63436 | 153.10985 | 5736 ft | 166 kts | 207° |
| 2026-04-27 10:13 | -26.64400 | 153.10012 | 5636 ft | 209 kts | 234° |
| 2026-04-27 10:13 | -26.65208 | 153.08499 | 5106 ft | 248 kts | 239° |
| 2026-04-27 10:13 | -26.66513 | 153.07003 | 4242 ft | 302 kts | 210° |
| 2026-04-27 10:14 | -26.68721 | 153.06459 | 3222 ft | 342 kts | 176° |
| 2026-04-27 10:14 | -26.70987 | 153.07289 | 2248 ft | 350 kts | 147° |
| 2026-04-27 10:14 | -26.72745 | 153.09070 | 2247 ft | 327 kts | 135° |
| 2026-04-27 10:14 | -26.74263 | 153.10862 | 2210 ft | 307 kts | 134° |
| 2026-04-27 10:15 | -26.75776 | 153.12438 | 2214 ft | 287 kts | 141° |
| 2026-04-27 10:15 | -26.77296 | 153.13796 | 2318 ft | 271 kts | 143° |
| 2026-04-27 10:15 | -26.78743 | 153.15049 | 2738 ft | 256 kts | 143° |
| 2026-04-27 10:15 | -26.80117 | 153.16238 | 3376 ft | 240 kts | 143° |
| 2026-04-27 10:16 | -26.81348 | 153.17303 | 3642 ft | 216 kts | 143° |
| 2026-04-27 10:16 | -26.82592 | 153.18378 | 3780 ft | 233 kts | 143° |
| 2026-04-27 10:16 | -26.83873 | 153.19483 | 3781 ft | 231 kts | 143° |
| 2026-04-27 10:16 | -26.85148 | 153.20583 | 3791 ft | 231 kts | 143° |
| 2026-04-27 10:17 | -26.86423 | 153.21681 | 3786 ft | 231 kts | 143° |
| 2026-04-27 10:17 | -26.87698 | 153.22779 | 3785 ft | 231 kts | 143° |
| 2026-04-27 10:17 | -26.88975 | 153.23878 | 3792 ft | 231 kts | 143° |
| 2026-04-27 10:17 | -26.90249 | 153.24974 | 3786 ft | 231 kts | 143° |
| 2026-04-27 10:18 | -26.91527 | 153.26073 | 3786 ft | 231 kts | 143° |